Time;durP1;ratioP1;P1;durP2;ratioP2;P2;SDS_P1;SDS_P2;PMS_P1;PMS_P2;Temp;Humidity;BMP_temperature;BMP_pressure;BME280_temperature;BME280_humidity;BME280_pressure;Samples;Min_cycle;Max_cycle;Signal;HPM_P1;HPM_P2
2022/08/20 00:02:26;;;;;;;3.78;2.47;;;;;;;19.24;87.17;100371.53;6257678;28;20660;-88
2022/08/20 00:05:35;;;;;;;3.45;2.45;;;;;;;19.23;86.36;100369.94;6261029;28;20037;-88
2022/08/20 00:08:38;;;;;;;3.15;2.38;;;;;;;19.20;87.21;100366.84;6273287;28;20501;-88
2022/08/20 00:11:40;;;;;;;3.42;2.38;;;;;;;19.15;89.55;100370.00;6279224;28;20040;-87
2022/08/20 00:14:42;;;;;;;3.35;2.30;;;;;;;19.10;90.01;100359.22;6277351;28;20043;-88
2022/08/20 00:17:43;;;;;;;3.53;2.35;;;;;;;19.08;91.79;100369.09;6281908;28;20391;-88
2022/08/20 00:20:49;;;;;;;2.50;2.08;;;;;;;19.06;91.01;100364.03;6279476;28;20474;-88
2022/08/20 00:23:53;;;;;;;2.58;1.80;;;;;;;19.09;92.57;100368.13;6279581;28;20802;-87
2022/08/20 00:26:55;;;;;;;2.28;1.95;;;;;;;19.10;92.45;100373.16;6276336;28;20099;-88
2022/08/20 00:29:56;;;;;;;3.53;2.20;;;;;;;19.13;92.95;100366.78;6269428;28;20045;-88
2022/08/20 00:33:03;;;;;;;3.00;2.20;;;;;;;19.12;93.98;100373.81;6269313;28;20047;-87
2022/08/20 00:36:11;;;;;;;2.70;1.65;;;;;;;19.14;93.80;100371.81;6267665;28;20049;-87
2022/08/20 00:39:12;;;;;;;2.28;1.90;;;;;;;19.19;92.83;100368.66;6277516;28;20067;-88
2022/08/20 00:42:14;;;;;;;2.92;1.98;;;;;;;19.23;90.99;100379.59;6284817;28;20041;-88
2022/08/20 00:45:19;;;;;;;2.47;1.98;;;;;;;19.22;87.43;100373.53;6281942;28;20037;-87
2022/08/20 00:48:30;;;;;;;3.15;2.10;;;;;;;19.25;88.84;100375.78;6279095;28;20039;-88
2022/08/20 00:51:51;;;;;;;2.30;1.98;;;;;;;19.27;90.81;100376.44;6279326;28;20567;-87
2022/08/20 00:54:58;;;;;;;1.92;1.70;;;;;;;19.30;92.89;100380.50;6261523;28;20768;-88
2022/08/20 00:58:06;;;;;;;3.97;1.80;;;;;;;19.29;93.54;100382.31;6264258;28;20495;-87
2022/08/20 01:01:10;;;;;;;2.63;1.83;;;;;;;19.28;93.13;100385.94;6272614;28;20052;-87
2022/08/20 01:04:12;;;;;;;2.50;1.95;;;;;;;19.27;91.05;100394.78;6268304;28;20753;-87
2022/08/20 01:07:14;;;;;;;2.42;2.00;;;;;;;19.23;86.08;100390.09;6264703;28;20036;-87
2022/08/20 01:10:20;;;;;;;2.28;1.85;;;;;;;19.26;87.99;100395.81;6267646;28;20042;-88
2022/08/20 01:13:24;;;;;;;2.40;2.00;;;;;;;19.26;87.13;100392.38;6282938;28;20041;-88
2022/08/20 01:16:30;;;;;;;2.15;1.88;;;;;;;19.29;87.82;100398.06;6267148;28;20421;-87
2022/08/20 01:19:50;;;;;;;4.55;2.10;;;;;;;19.27;86.50;100402.66;6258740;28;20052;-88
2022/08/20 01:23:29;;;;;;;1.63;1.52;;;;;;;19.24;84.14;100389.09;6259689;28;20073;-87
2022/08/20 01:26:41;;;;;;;3.70;1.95;;;;;;;19.24;85.42;100389.91;6200421;28;20157;-87
2022/08/20 01:29:44;;;;;;;2.78;1.58;;;;;;;19.25;84.18;100391.53;6208358;28;20235;-88
2022/08/20 01:32:46;;;;;;;2.13;1.92;;;;;;;19.23;85.18;100397.97;6193734;28;20045;-88
2022/08/20 01:35:49;;;;;;;4.40;2.05;;;;;;;19.23;86.59;100395.34;6198696;28;20062;-88
2022/08/20 01:38:51;;;;;;;5.00;2.25;;;;;;;19.27;87.02;100405.28;6193576;28;20057;-87
2022/08/20 01:42:17;;;;;;;2.40;1.88;;;;;;;19.31;86.99;100401.31;6204672;28;20066;-88
2022/08/20 01:45:18;;;;;;;2.28;1.98;;;;;;;19.35;85.72;100405.22;6202619;28;20526;-88
2022/08/20 01:48:27;;;;;;;2.85;1.90;;;;;;;19.40;83.80;100406.47;6198021;28;20107;-87
2022/08/20 01:51:29;;;;;;;2.13;1.92;;;;;;;19.41;82.78;100405.50;6201304;28;20132;-88
2022/08/20 01:54:34;;;;;;;2.50;2.00;;;;;;;19.41;83.04;100395.81;6197655;28;20098;-88
2022/08/20 01:57:36;;;;;;;2.50;2.03;;;;;;;19.41;83.72;100395.81;6207338;28;20049;-88
2022/08/20 02:00:38;;;;;;;3.88;2.15;;;;;;;19.42;81.20;100404.47;6208363;28;20050;-88
2022/08/20 02:03:41;;;;;;;3.03;2.22;;;;;;;19.45;78.49;100401.47;6233700;28;20059;-87
2022/08/20 02:06:53;;;;;;;3.42;2.10;;;;;;;19.45;81.96;100398.84;6257256;28;20057;-88
2022/08/20 02:09:58;;;;;;;3.05;1.90;;;;;;;19.44;78.41;100394.63;6259574;28;20049;-88
2022/08/20 02:13:00;;;;;;;3.22;2.10;;;;;;;19.44;78.52;100387.56;6256483;28;20051;-88
2022/08/20 02:16:04;;;;;;;9.38;2.30;;;;;;;19.42;80.22;100394.78;6265402;28;20048;-87
2022/08/20 02:19:20;;;;;;;2.58;2.08;;;;;;;19.41;82.15;100395.81;6267384;28;20519;-88
2022/08/20 02:22:39;;;;;;;3.15;2.00;;;;;;;19.37;80.29;100391.91;6248703;28;20045;-88
2022/08/20 02:25:50;;;;;;;2.22;2.03;;;;;;;19.35;82.15;100391.25;6265771;28;20158;-88
2022/08/20 02:28:53;;;;;;;3.88;2.10;;;;;;;19.30;82.11;100396.25;6266745;28;20375;-88
2022/08/20 02:31:55;;;;;;;4.70;2.30;;;;;;;19.29;83.72;100397.25;6266868;28;20044;-88
2022/08/20 02:35:17;;;;;;;3.03;2.25;;;;;;;19.25;82.02;100396.78;6262105;28;20753;-88
2022/08/20 02:38:19;;;;;;;2.47;2.25;;;;;;;19.22;85.07;100406.84;6257893;28;20131;-87
2022/08/20 02:41:21;;;;;;;2.35;2.15;;;;;;;19.22;86.42;100401.59;6258695;28;20049;-88
2022/08/20 02:44:23;;;;;;;5.25;3.05;;;;;;;19.20;84.46;100403.56;6255939;28;20049;-87
2022/08/20 02:47:26;;;;;;;2.83;2.22;;;;;;;19.18;83.44;100401.16;6260352;28;20140;-88
2022/08/20 02:50:29;;;;;;;3.33;2.35;;;;;;;19.18;82.06;100398.53;6260205;28;20911;-88
2022/08/20 02:53:33;;;;;;;4.60;2.55;;;;;;;19.18;81.60;100408.19;6261862;28;20551;-88
2022/08/20 02:56:35;;;;;;;2.85;2.03;;;;;;;19.20;81.92;100406.19;6260467;28;20673;-88
2022/08/20 02:59:37;;;;;;;3.08;2.63;;;;;;;19.20;84.61;100407.00;6278814;28;20083;-88
2022/08/20 03:02:40;;;;;;;3.90;2.63;;;;;;;19.20;83.43;100403.56;6276943;28;20048;-88
2022/08/20 03:05:43;;;;;;;3.03;2.60;;;;;;;19.22;83.50;100405.03;6267943;28;20317;-88
2022/08/20 03:08:45;;;;;;;5.82;2.60;;;;;;;19.24;83.09;100404.84;6272283;28;20847;-88
2022/08/20 03:11:47;;;;;;;3.88;2.42;;;;;;;19.26;83.75;100410.75;6269702;28;20045;-88
2022/08/20 03:14:48;;;;;;;3.22;2.72;;;;;;;19.34;81.34;100406.19;6259759;28;20049;-88
2022/08/20 03:17:50;;;;;;;4.47;3.03;;;;;;;19.37;82.58;100420.78;6260817;28;20620;-88
2022/08/20 03:20:52;;;;;;;3.95;3.15;;;;;;;19.41;83.36;100423.88;6261358;28;20513;-88
2022/08/20 03:23:55;;;;;;;3.40;2.70;;;;;;;19.44;85.53;100428.75;6259467;28;20053;-88
2022/08/20 03:26:57;;;;;;;6.70;3.50;;;;;;;19.42;83.54;100420.22;6256355;28;20037;-88
2022/08/20 03:29:58;;;;;;;7.07;3.55;;;;;;;19.49;82.73;100423.75;6255767;28;20056;-88
2022/08/20 03:33:01;;;;;;;8.50;3.88;;;;;;;19.49;85.76;100424.56;6263712;28;20370;-88
2022/08/20 03:36:04;;;;;;;4.05;3.33;;;;;;;19.47;84.42;100417.88;6245102;28;20050;-88
2022/08/20 03:39:10;;;;;;;4.38;3.92;;;;;;;19.44;85.21;100415.63;6264199;28;20040;-88
2022/08/20 03:42:12;;;;;;;5.40;3.97;;;;;;;19.45;85.39;100425.94;6262838;28;20061;-88
2022/08/20 03:45:14;;;;;;;5.72;4.25;;;;;;;19.43;86.65;100432.34;6261006;28;20041;-88
2022/08/20 03:48:21;;;;;;;4.90;4.18;;;;;;;19.45;83.86;100436.44;6252898;28;20055;-87
2022/08/20 03:51:24;;;;;;;9.77;4.28;;;;;;;19.36;86.07;100427.03;6252785;28;20041;-87
2022/08/20 03:54:26;;;;;;;6.53;4.53;;;;;;;19.34;86.53;100436.88;6251959;28;20133;-88
2022/08/20 03:57:34;;;;;;;5.50;4.43;;;;;;;19.31;86.26;100430.19;6262704;28;20052;-87
2022/08/20 04:00:41;;;;;;;4.95;3.90;;;;;;;19.28;89.46;100433.19;6262915;28;20778;-88
2022/08/20 04:03:44;;;;;;;5.35;3.85;;;;;;;19.32;86.58;100433.63;6266437;28;20063;-87
2022/08/20 04:06:46;;;;;;;6.50;4.72;;;;;;;19.29;89.98;100434.00;6255972;28;20167;-88
2022/08/20 04:09:48;;;;;;;5.22;4.13;;;;;;;19.28;89.14;100437.63;6249255;28;20051;-88
2022/08/20 04:12:50;;;;;;;6.72;4.35;;;;;;;19.25;89.77;100437.97;6248534;28;20044;-87
2022/08/20 04:15:54;;;;;;;7.10;4.80;;;;;;;19.20;89.59;100441.13;6260756;28;20052;-88
2022/08/20 04:18:56;;;;;;;5.88;4.07;;;;;;;19.20;91.22;100441.13;6250465;28;20041;-88
2022/08/20 04:22:04;;;;;;;4.82;4.20;;;;;;;19.21;89.52;100447.22;6246203;28;20052;-88
2022/08/20 04:25:12;;;;;;;5.15;4.40;;;;;;;19.19;92.31;100449.19;6246749;28;20523;-88
2022/08/20 04:28:37;;;;;;;7.07;3.88;;;;;;;19.21;91.47;100444.59;6261600;28;20746;-88
2022/08/20 04:31:39;;;;;;;5.10;4.38;;;;;;;19.14;89.26;100461.03;6250870;28;20034;-87
2022/08/20 04:34:40;;;;;;;4.75;4.00;;;;;;;19.11;90.58;100457.97;6268868;28;20040;-87
2022/08/20 04:37:45;;;;;;;5.15;4.07;;;;;;;19.11;92.77;100461.41;6272339;28;20041;-87
2022/08/20 04:40:56;;;;;;;7.50;4.10;;;;;;;19.09;93.65;100455.50;6276248;28;20045;-87
2022/08/20 04:44:00;;;;;;;5.47;4.35;;;;;;;19.08;93.25;100455.66;6273007;28;20069;-87
2022/08/20 04:47:01;;;;;;;6.50;3.95;;;;;;;19.08;95.54;100456.50;6263150;28;20129;-88
2022/08/20 04:50:06;;;;;;;4.65;4.13;;;;;;;19.09;96.49;100454.69;6246362;28;20769;-88
2022/08/20 04:53:15;;;;;;;5.88;4.35;;;;;;;19.07;94.68;100454.88;6263821;28;20080;-88
2022/08/20 04:56:18;;;;;;;4.35;3.78;;;;;;;19.09;94.64;100459.94;6239713;28;20443;-87
2022/08/20 04:59:20;;;;;;;5.88;4.38;;;;;;;19.12;98.87;100460.38;6262147;28;20049;-88
2022/08/20 05:02:22;;;;;;;5.28;4.00;;;;;;;19.14;99.55;100461.03;6257282;28;20052;-88
2022/08/20 05:05:25;;;;;;;5.63;3.90;;;;;;;19.16;99.94;100466.13;6257079;28;20179;-88
2022/08/20 05:08:28;;;;;;;4.85;4.07;;;;;;;19.19;100.00;100464.94;6254949;28;20068;-87
2022/08/20 05:11:30;;;;;;;5.78;3.80;;;;;;;19.18;99.41;100468.53;6244199;28;20095;-88
2022/08/20 05:14:36;;;;;;;6.22;3.80;;;;;;;19.19;99.27;100465.75;6269062;28;20040;-88
2022/08/20 05:17:45;;;;;;;4.07;3.65;;;;;;;19.18;96.01;100473.78;6269079;28;20051;-88
2022/08/20 05:20:47;;;;;;;5.97;3.90;;;;;;;19.22;98.26;100472.44;6266374;28;20044;-87
2022/08/20 05:23:49;;;;;;;6.22;4.18;;;;;;;19.25;97.68;100472.88;6265521;28;20043;-88
2022/08/20 05:26:53;;;;;;;6.68;3.85;;;;;;;19.29;97.74;100471.56;6262763;28;20037;-88
2022/08/20 05:30:09;;;;;;;5.40;3.80;;;;;;;19.32;98.08;100486.13;6263058;28;20068;-88
2022/08/20 05:33:17;;;;;;;5.82;4.07;;;;;;;19.35;98.40;100489.22;6264104;28;20041;-88
2022/08/20 05:36:20;;;;;;;5.65;4.65;;;;;;;19.42;96.26;100491.91;6264985;28;20040;-88
2022/08/20 05:39:22;;;;;;;8.20;4.93;;;;;;;19.54;96.72;100487.03;6262953;28;20119;-88
2022/08/20 05:42:26;;;;;;;5.70;4.72;;;;;;;19.63;94.55;100498.28;6270834;28;20513;-88
2022/08/20 05:45:28;;;;;;;6.00;4.40;;;;;;;19.69;94.82;100503.66;6271071;28;20179;-88
2022/08/20 05:48:34;;;;;;;6.50;5.18;;;;;;;19.77;93.65;100503.53;6275768;28;20517;-88
2022/08/20 05:51:36;;;;;;;6.10;5.50;;;;;;;19.85;92.08;100497.41;6271618;28;20551;-88
2022/08/20 05:54:38;;;;;;;7.78;4.80;;;;;;;19.82;93.30;100503.00;6262785;28;20821;-88
2022/08/20 05:57:41;;;;;;;7.25;4.72;;;;;;;19.83;94.22;100501.22;6276885;28;20045;-88
2022/08/20 06:00:43;;;;;;;6.05;4.88;;;;;;;19.90;92.63;100504.72;6276768;28;20074;-88
2022/08/20 06:07:06;;;;;;;;;;;;;;;20.14;91.49;100496.53;6266675;28;20097;-88
2022/08/20 06:10:09;;;;;;;7.10;5.20;;;;;;;20.29;88.79;100488.59;6268959;28;19978;-88
2022/08/20 06:13:11;;;;;;;7.30;4.93;;;;;;;20.41;89.57;100487.13;6262910;28;20045;-88
2022/08/20 06:16:14;;;;;;;7.45;5.28;;;;;;;20.63;89.81;100498.50;6267030;28;20501;-88
2022/08/20 06:19:17;;;;;;;5.90;4.95;;;;;;;20.88;89.31;100492.06;6265918;28;20041;-88
2022/08/20 06:22:26;;;;;;;7.40;5.47;;;;;;;21.12;88.57;100499.53;6256393;28;20056;-88
2022/08/20 06:25:28;;;;;;;9.13;5.38;;;;;;;21.22;86.66;100492.13;6267987;28;20459;-88
2022/08/20 06:28:30;;;;;;;7.28;5.57;;;;;;;21.36;85.49;100498.28;6268962;28;20760;-88
2022/08/20 06:31:33;;;;;;;7.63;6.55;;;;;;;21.56;85.20;100493.16;6264209;28;20185;-88
2022/08/20 06:34:35;;;;;;;8.93;7.63;;;;;;;21.72;84.27;100500.75;6263719;28;20494;-88
2022/08/20 06:37:39;;;;;;;9.90;7.47;;;;;;;21.80;83.21;100496.34;6262915;28;20511;-88
2022/08/20 06:40:41;;;;;;;12.77;9.05;;;;;;;21.96;83.70;100495.97;6257658;28;20581;-88
2022/08/20 06:43:43;;;;;;;11.48;8.38;;;;;;;22.14;82.80;100496.28;6269666;28;20044;-88
2022/08/20 06:46:45;;;;;;;9.70;8.63;;;;;;;22.34;83.13;100498.19;6268140;28;20082;-88
2022/08/20 06:49:47;;;;;;;13.57;10.80;;;;;;;22.54;82.95;100496.41;6275660;28;20518;-87
2022/08/20 06:52:49;;;;;;;13.25;9.65;;;;;;;22.71;82.03;100496.03;6265755;28;20056;-88
2022/08/20 06:56:03;;;;;;;17.13;10.93;;;;;;;22.88;81.71;100499.88;6259452;28;20056;-88
2022/08/20 06:59:05;;;;;;;13.82;10.73;;;;;;;23.05;80.50;100494.22;6260303;28;20127;-88
2022/08/20 07:02:07;;;;;;;15.18;10.85;;;;;;;23.09;81.68;100500.72;6260322;28;20052;-88
2022/08/20 07:05:09;;;;;;;15.25;10.88;;;;;;;23.12;79.71;100503.75;6261119;28;20133;-89
2022/08/20 07:08:15;;;;;;;14.60;11.88;;;;;;;23.03;80.62;100507.63;6273002;28;20048;-88
2022/08/20 07:11:17;;;;;;;17.90;12.20;;;;;;;22.98;81.18;100512.69;6262741;28;20064;-89
2022/08/20 07:14:19;;;;;;;16.42;11.25;;;;;;;22.98;81.67;100516.16;6267662;28;20585;-89
2022/08/20 07:17:20;;;;;;;15.38;11.25;;;;;;;22.99;79.70;100507.22;6274253;28;20044;-89
2022/08/20 07:20:25;;;;;;;14.38;10.38;;;;;;;22.96;79.65;100518.16;6268755;28;20041;-88
2022/08/20 07:23:30;;;;;;;14.10;10.15;;;;;;;23.02;81.68;100516.56;6256080;28;20033;-88
2022/08/20 07:26:33;;;;;;;11.40;9.20;;;;;;;23.18;80.75;100518.81;6254153;28;20049;-88
2022/08/20 07:32:56;;;;;;;11.23;8.75;;;;;;;23.30;78.93;100523.44;6261631;28;20270;-88
2022/08/20 07:36:04;;;;;;;17.42;9.30;;;;;;;23.21;78.88;100517.56;6260555;28;20048;-89
2022/08/20 07:39:06;;;;;;;10.52;8.25;;;;;;;23.17;79.41;100532.19;6259030;28;20101;-89
2022/08/20 07:42:10;;;;;;;10.40;8.75;;;;;;;23.05;79.73;100534.63;6258915;28;20045;-88
2022/08/20 07:45:14;;;;;;;13.63;10.05;;;;;;;22.93;78.64;100536.22;6255145;28;20487;-90
2022/08/20 07:48:16;;;;;;;13.23;9.18;;;;;;;22.89;79.45;100535.81;6250349;28;20040;-89
2022/08/20 07:51:33;;;;;;;12.65;9.15;;;;;;;22.91;79.50;100541.72;6259444;28;20136;-88
2022/08/20 07:54:36;;;;;;;11.20;8.38;;;;;;;23.02;77.30;100545.59;6242072;28;20099;-89
2022/08/20 07:57:38;;;;;;;11.55;8.30;;;;;;;22.98;77.10;100539.94;6244548;28;20049;-88
2022/08/20 08:00:40;;;;;;;12.55;9.60;;;;;;;22.85;77.48;100547.78;6243639;28;20045;-89
2022/08/20 08:03:42;;;;;;;14.18;10.30;;;;;;;22.71;78.66;100554.09;6255470;28;20309;-88
2022/08/20 08:06:51;;;;;;;14.23;10.65;;;;;;;22.57;80.29;100555.88;6230014;28;20201;-88
2022/08/20 08:09:55;;;;;;;13.57;10.13;;;;;;;22.48;81.01;100560.50;6251489;28;20041;-88
2022/08/20 08:13:01;;;;;;;12.40;8.82;;;;;;;22.60;80.53;100555.47;6240898;28;20072;-88
2022/08/20 08:16:09;;;;;;;12.77;10.07;;;;;;;22.83;78.56;100559.56;6250304;28;20052;-89
2022/08/20 08:19:13;;;;;;;14.90;10.55;;;;;;;22.98;78.34;100568.13;6249206;28;20037;-88
2022/08/20 08:22:17;;;;;;;13.43;9.90;;;;;;;22.94;79.67;100569.53;6234675;28;20044;-88
2022/08/20 08:25:19;;;;;;;14.57;10.68;;;;;;;22.88;81.43;100565.88;6243431;28;20053;-89
2022/08/20 08:28:20;;;;;;;13.80;10.80;;;;;;;22.81;79.14;100575.63;6242747;28;20842;-90
2022/08/20 08:31:24;;;;;;;13.00;9.93;;;;;;;22.59;79.70;100577.59;6252399;28;20123;-88
2022/08/20 08:34:27;;;;;;;13.18;8.93;;;;;;;22.48;79.80;100571.03;6249772;28;20037;-89
2022/08/20 08:37:28;;;;;;;11.73;8.90;;;;;;;22.28;81.32;100586.00;6251230;28;20049;-89
2022/08/20 08:40:32;;;;;;;14.23;9.45;;;;;;;22.17;83.95;100579.44;6245771;28;20160;-88
2022/08/20 08:43:34;;;;;;;14.93;10.20;;;;;;;22.12;84.70;100581.84;6231567;28;20057;-90
2022/08/20 08:46:47;;;;;;;14.07;9.68;;;;;;;22.08;86.02;100581.41;6257524;28;20049;-89
2022/08/20 08:49:49;;;;;;;13.48;9.32;;;;;;;22.08;85.72;100577.97;6247474;28;20067;-88
2022/08/20 08:52:59;;;;;;;12.70;9.73;;;;;;;22.25;82.96;100589.03;6252067;28;20045;-88
2022/08/20 08:56:02;;;;;;;12.50;8.55;;;;;;;22.43;82.05;100591.94;6250442;28;20037;-88
2022/08/20 08:59:07;;;;;;;12.60;8.63;;;;;;;22.65;80.72;100589.16;6242334;28;20041;-89
2022/08/20 09:02:19;;;;;;;12.50;8.75;;;;;;;22.97;81.55;100592.88;6242508;28;20067;-88
2022/08/20 09:05:22;;;;;;;10.93;8.60;;;;;;;23.46;78.70;100596.19;6229006;28;20042;-88
2022/08/20 09:08:32;;;;;;;11.55;8.70;;;;;;;23.89;75.88;100590.47;6248197;28;20367;-89
2022/08/20 09:11:46;;;;;;;10.57;8.40;;;;;;;24.29;73.12;100599.88;6245243;28;20474;-89
2022/08/20 09:14:50;;;;;;;11.60;7.40;;;;;;;24.36;70.90;100613.09;6249088;28;20048;-89
2022/08/20 09:17:51;;;;;;;11.30;7.53;;;;;;;24.41;71.95;100607.97;6251001;28;20041;-89
2022/08/20 09:20:54;;;;;;;10.57;8.18;;;;;;;24.47;71.68;100603.72;6251320;28;20066;-89
2022/08/20 09:23:56;;;;;;;9.57;6.80;;;;;;;24.63;71.63;100611.16;6247462;28;20140;-88
2022/08/20 09:26:58;;;;;;;9.80;6.97;;;;;;;24.70;71.20;100605.84;6249963;28;20056;-89
2022/08/20 09:30:00;;;;;;;8.05;6.97;;;;;;;24.83;71.28;100605.75;6252005;28;20040;-89
2022/08/20 09:33:02;;;;;;;8.45;6.82;;;;;;;24.90;71.24;100603.06;6269004;28;20620;-90
2022/08/20 09:36:04;;;;;;;10.25;7.28;;;;;;;24.82;68.80;100605.97;6251558;28;20251;-89
2022/08/20 09:39:26;;;;;;;8.55;6.90;;;;;;;24.71;70.70;100595.03;6256224;28;20037;-89
2022/08/20 09:42:33;;;;;;;12.68;7.93;;;;;;;24.67;70.05;100593.00;6250618;28;20044;-89
2022/08/20 09:45:41;;;;;;;9.90;7.00;;;;;;;25.01;70.53;100590.97;6246702;28;20122;-89
2022/08/20 09:48:43;;;;;;;7.90;6.65;;;;;;;25.52;68.23;100587.34;6251328;28;20037;-89
2022/08/20 09:51:45;;;;;;;9.93;7.85;;;;;;;25.80;66.16;100602.75;6258298;28;20126;-89
2022/08/20 09:54:48;;;;;;;10.70;7.80;;;;;;;25.78;66.18;100597.66;6253230;28;20140;-89
2022/08/20 09:57:51;;;;;;;10.60;7.82;;;;;;;25.86;65.40;100591.28;6256757;28;20090;-89
2022/08/20 10:00:53;;;;;;;10.48;8.50;;;;;;;25.67;66.76;100587.78;6259706;28;20033;-89
2022/08/20 10:03:54;;;;;;;10.85;7.13;;;;;;;25.57;67.48;100588.28;6256135;28;20494;-89
2022/08/20 10:06:56;;;;;;;8.30;6.45;;;;;;;25.45;67.14;100595.34;6243703;28;20086;-90
2022/08/20 10:09:58;;;;;;;7.38;6.53;;;;;;;25.51;65.90;100599.75;6255036;28;20057;-89
2022/08/20 10:13:01;;;;;;;8.02;6.53;;;;;;;25.44;66.52;100592.91;6258987;28;20123;-89
2022/08/20 10:16:03;;;;;;;7.85;6.22;;;;;;;25.64;66.11;100601.50;6254879;28;20037;-89
2022/08/20 10:19:04;;;;;;;6.93;5.53;;;;;;;25.83;65.27;100593.53;6258038;28;20037;-89
2022/08/20 10:22:06;;;;;;;6.10;5.50;;;;;;;25.89;65.57;100593.53;6261880;28;20053;-89
2022/08/20 10:25:09;;;;;;;6.82;5.68;;;;;;;26.23;63.41;100596.59;6254873;28;20065;-89
2022/08/20 10:28:14;;;;;;;7.85;6.13;;;;;;;26.10;65.00;100602.06;6257419;28;20045;-90
2022/08/20 10:31:15;;;;;;;7.97;5.55;;;;;;;25.77;65.63;100596.06;6257752;28;20145;-89
2022/08/20 10:34:17;;;;;;;7.07;5.80;;;;;;;25.33;67.86;100594.44;6253357;28;20048;-89
2022/08/20 10:37:22;;;;;;;7.30;5.70;;;;;;;24.77;70.18;100593.38;6255507;28;20033;-89
2022/08/20 10:40:24;;;;;;;12.13;9.90;;;;;;;24.03;76.75;100602.66;6260795;28;20048;-90
2022/08/20 10:43:27;;;;;;;12.13;9.90;;;;;;;23.40;82.34;100611.84;6252787;28;20041;-89
2022/08/20 10:46:29;;;;;;;15.57;13.05;;;;;;;22.47;100.00;100608.19;6259419;28;20064;-92
2022/08/20 10:49:34;;;;;;;21.05;13.98;;;;;;;21.23;100.00;100622.75;6251106;28;20032;-91
2022/08/20 10:52:36;;;;;;;16.50;13.57;;;;;;;20.44;100.00;100620.03;6263394;28;20087;-96
2022/08/20 10:55:38;;;;;;;20.00;14.85;;;;;;;19.93;100.00;100635.75;6260172;28;20158;-92
2022/08/20 10:59:04;;;;;;;21.98;16.23;;;;;;;19.78;100.00;100631.28;6262985;28;20052;-96
2022/08/20 11:02:08;;;;;;;22.02;15.55;;;;;;;19.64;100.00;100636.47;6267864;23;20052;-96
2022/08/20 11:05:16;;;;;;;22.58;14.30;;;;;;;19.56;100.00;100634.72;6257632;28;20079;-96
2022/08/20 11:09:00;;;;;;;22.58;16.83;;;;;;;19.54;100.00;100636.72;6260252;28;20117;-96
2022/08/20 11:12:27;;;;;;;23.98;16.60;;;;;;;19.61;100.00;100632.38;6193253;28;20670;-94
2022/08/20 11:15:29;;;;;;;18.20;14.50;;;;;;;19.76;100.00;100629.81;6192949;28;20050;-94
2022/08/20 11:18:32;;;;;;;22.73;17.15;;;;;;;19.96;100.00;100636.19;6196985;28;20653;-96
2022/08/20 11:21:34;;;;;;;18.40;14.25;;;;;;;20.16;100.00;100638.28;6201213;28;20061;-96
2022/08/20 11:24:37;;;;;;;18.50;14.32;;;;;;;20.21;100.00;100634.09;6198915;28;20037;-96
2022/08/20 11:27:43;;;;;;;18.08;14.50;;;;;;;20.29;100.00;100640.28;6194569;28;20066;-96
2022/08/20 11:30:46;;;;;;;17.27;14.75;;;;;;;20.42;100.00;100629.91;6201342;28;20535;-95
2022/08/20 11:33:48;;;;;;;18.85;15.30;;;;;;;20.51;100.00;100631.47;6209646;28;20611;-95
2022/08/20 11:36:52;;;;;;;21.17;17.23;;;;;;;20.80;100.00;100621.91;6194473;28;20042;-95
2022/08/20 11:39:54;;;;;;;20.52;16.98;;;;;;;21.08;100.00;100629.88;6199760;28;20094;-95
2022/08/20 11:42:57;;;;;;;17.50;14.13;;;;;;;21.15;100.00;100633.41;6211591;28;20160;-95
2022/08/20 11:46:15;;;;;;;16.75;13.82;;;;;;;21.50;100.00;100623.00;6200147;28;20412;-94
2022/08/20 11:49:17;;;;;;;15.55;13.25;;;;;;;21.85;100.00;100628.31;6202106;28;20041;-94
2022/08/20 11:52:19;;;;;;;15.10;12.27;;;;;;;22.09;100.00;100625.22;6197112;28;20053;-95
2022/08/20 11:55:22;;;;;;;17.65;12.68;;;;;;;22.29;100.00;100624.56;6196899;28;20042;-94
2022/08/20 11:58:32;;;;;;;14.73;12.02;;;;;;;22.61;100.00;100630.16;6198231;28;20426;-95
2022/08/20 12:01:34;;;;;;;13.40;11.95;;;;;;;22.74;100.00;100631.00;6222226;28;20050;-94
2022/08/20 12:04:36;;;;;;;12.82;10.60;;;;;;;22.92;100.00;100625.16;6205945;28;20179;-94
2022/08/20 12:07:38;;;;;;;14.00;11.55;;;;;;;22.92;100.00;100617.25;6202014;28;20071;-94
2022/08/20 12:10:40;;;;;;;12.00;10.45;;;;;;;23.12;100.00;100616.50;6184399;28;20132;-94
2022/08/20 12:13:42;;;;;;;9.05;7.43;;;;;;;23.19;100.00;100620.78;6202461;28;20495;-94
2022/08/20 12:16:49;;;;;;;10.68;8.95;;;;;;;23.42;100.00;100619.56;6205595;28;20061;-93
2022/08/20 12:19:54;;;;;;;10.27;9.10;;;;;;;23.47;100.00;100627.69;6205448;28;20038;-93
2022/08/20 12:22:57;;;;;;;11.10;9.55;;;;;;;23.38;100.00;100629.72;6200277;28;20046;-93
2022/08/20 12:26:02;;;;;;;11.80;9.52;;;;;;;23.58;100.00;100628.94;6200121;28;20042;-93
2022/08/20 12:29:04;;;;;;;10.95;9.18;;;;;;;23.95;100.00;100631.94;6204394;28;20128;-93
2022/08/20 12:32:06;;;;;;;9.85;8.85;;;;;;;24.27;100.00;100636.34;6201980;28;20041;-94
2022/08/20 12:35:09;;;;;;;9.70;8.35;;;;;;;24.84;100.00;100635.69;6204113;28;20046;-93
2022/08/20 12:38:11;;;;;;;7.68;6.88;;;;;;;24.93;100.00;100629.94;6194925;28;20640;-93
2022/08/20 12:41:13;;;;;;;8.20;6.95;;;;;;;24.65;100.00;100622.38;6195701;28;20045;-93
2022/08/20 12:44:15;;;;;;;7.57;6.82;;;;;;;24.34;100.00;100620.44;6207381;28;20058;-94
2022/08/20 12:47:30;;;;;;;7.40;6.70;;;;;;;24.21;100.00;100623.94;6201359;28;20042;-93
2022/08/20 12:50:33;;;;;;;5.82;5.32;;;;;;;24.03;100.00;100613.22;6201967;28;20045;-93
2022/08/20 12:53:35;;;;;;;5.70;5.07;;;;;;;23.85;100.00;100609.41;6195553;28;20049;-93
2022/08/20 12:56:37;;;;;;;6.05;5.45;;;;;;;23.64;100.00;100609.59;6200298;28;20042;-93
2022/08/20 12:59:40;;;;;;;6.20;4.75;;;;;;;23.34;100.00;100612.66;6205983;28;20042;-95
2022/08/20 13:02:43;;;;;;;6.57;5.03;;;;;;;23.16;100.00;100602.69;6203891;28;20061;-94
2022/08/20 13:05:46;;;;;;;7.22;5.85;;;;;;;23.11;100.00;100599.84;6215792;28;20064;-93
2022/08/20 13:08:48;;;;;;;8.00;7.20;;;;;;;23.15;100.00;100606.34;6196350;28;20550;-93
2022/08/20 13:11:50;;;;;;;9.00;7.25;;;;;;;23.34;100.00;100602.09;6216289;28;20043;-92
2022/08/20 13:14:52;;;;;;;5.45;4.95;;;;;;;23.71;100.00;100597.19;6213597;28;20084;-92
2022/08/20 13:17:56;;;;;;;4.40;4.00;;;;;;;24.12;100.00;100598.72;6215730;28;20046;-93
2022/08/20 13:20:58;;;;;;;4.70;4.30;;;;;;;24.33;100.00;100596.84;6192981;28;20448;-92
2022/08/20 13:24:00;;;;;;;5.93;4.32;;;;;;;24.97;100.00;100597.72;6197128;28;20046;-91
2022/08/20 13:27:10;;;;;;;5.07;4.45;;;;;;;24.93;95.99;100594.69;6216447;28;20076;-92
2022/08/20 13:30:17;;;;;;;6.03;4.10;;;;;;;24.63;96.80;100597.13;6225886;28;20050;-92
2022/08/20 13:33:19;;;;;;;4.72;4.32;;;;;;;24.33;93.23;100597.66;6211747;28;20045;-93
2022/08/20 13:36:20;;;;;;;4.22;3.83;;;;;;;24.33;94.74;100599.47;6219492;28;20077;-90
2022/08/20 13:39:23;;;;;;;4.40;4.00;;;;;;;24.36;95.77;100599.06;6199239;28;20045;-92
2022/08/20 13:42:26;;;;;;;5.20;4.43;;;;;;;24.50;94.74;100590.06;6216990;28;20046;-92
2022/08/20 13:45:28;;;;;;;5.32;4.82;;;;;;;24.93;90.81;100595.50;6201615;28;20534;-92
2022/08/20 13:48:30;;;;;;;5.40;4.32;;;;;;;25.38;83.34;100599.88;6200459;28;20042;-91
2022/08/20 13:51:32;;;;;;;4.90;4.50;;;;;;;25.62;85.35;100600.91;6213127;28;20153;-92
2022/08/20 13:54:34;;;;;;;5.30;4.82;;;;;;;25.87;80.80;100602.72;6206956;28;20830;-91
2022/08/20 13:57:36;;;;;;;6.00;5.43;;;;;;;25.89;77.76;100601.47;6200482;28;20379;-92
2022/08/20 14:00:38;;;;;;;6.07;5.07;;;;;;;25.90;76.37;100602.28;6207287;28;20049;-92
2022/08/20 14:03:40;;;;;;;7.90;4.57;;;;;;;25.62;77.81;100600.09;6206884;28;20507;-92
2022/08/20 14:06:43;;;;;;;5.15;4.60;;;;;;;25.45;77.24;100600.66;6203701;28;20493;-92
2022/08/20 14:09:48;;;;;;;4.68;4.22;;;;;;;25.65;79.64;100594.34;6191313;28;20065;-92
2022/08/20 14:12:50;;;;;;;6.63;4.85;;;;;;;25.73;78.40;100599.34;6193328;28;20396;-91
2022/08/20 14:15:52;;;;;;;5.38;4.88;;;;;;;25.68;79.58;100594.72;6197022;28;20109;-93
2022/08/20 14:18:55;;;;;;;5.05;4.43;;;;;;;25.46;75.61;100591.66;6198293;28;20061;-92